• Join FlightAware (Why Join?)
  • Login
  • US Flag 
05:26AM EDT


 

Airport Tracker/Info


-or-


 

Live Flight TrackerFlight Track Log ✈ DAL1562 ✈ 19-Apr-2013 ✈ KDTW - KPHL

Flight Track Log - Related Links

Times and Time Zones

All times are in EDT time to prevent confusion due to time zone crossing. See the DAL1562 flight status page for this flight to view local times or setup timezone preferences in your user account.

Time Position Orientation Groundspeed Altitude Reporting Facility
EDT Latitude Longitude Course Direction KTS MPH feet Rate Location/Type
07:01PM 42.2017 -83.3553 95° East 162 186 1,800  Level Cleveland Center
07:02PM 42.1411 -83.3528 178° South 251 289 4,300 2,820 Climbing Cleveland Center
07:03PM 42.1061 -83.2533 115° Southeast 276 318 8,200 2,820 Climbing Cleveland Center
07:04PM 42.1211 -83.1364 80° East 275 316 10,700 1,980 Climbing Cleveland Center
07:05PM 42.1431 -83.0000 78° East 330 380 12,200 1,440 Climbing Cleveland Center
07:06PM 42.1650 -82.8411 79° East 380 437 13,600 1,740 Climbing Cleveland Center
07:07PM 42.2118 -82.3540 95° East  Level FlightAware Approximate
07:07PM 42.1911 -82.6711 78° East 427 491 15,700  Level Cleveland Center
07:08PM 42.2169 -82.4953 79° East 456 525 18,000 2,100 Climbing Cleveland Center
07:09PM 42.2178 -82.3158 90° East 468 539 20,000 1,860 Climbing Cleveland Center
07:10PM 42.2019 -82.1108 96° East 483 556 21,800 1,440 Climbing Cleveland Center
07:11PM 42.1689 -81.9250 103° East 501 577 22,900 2,220 Climbing Cleveland Center
07:12PM 42.0889 -81.8169 135° Southeast 428 493 26,300 2,640 Climbing Cleveland Center
07:13PM 42.0147 -81.7344 140° Southeast 406 467 28,300 1,320 Climbing Cleveland Center
07:14PM 41.9383 -81.6439 139° Southeast 384 442 29,000 300 Climbing Cleveland Center
07:15PM 41.8558 -81.5506 140° Southeast 374 430 29,000  Level Cleveland Center
07:16PM 41.7772 -81.4603 139° Southeast 374 430 29,000  Level Cleveland Center
07:17PM 41.7008 -81.3731 140° Southeast 374 430 29,000 420 Level Cleveland Center
07:18PM 41.6161 -81.2803 141° Southeast 363 418 29,900 960 Climbing Cleveland Center
07:19PM 41.5478 -81.1964 137° Southeast 351 404 31,000 540 Climbing Cleveland Center
07:20PM 41.4833 -81.1153 137° Southeast 328 377 31,000  Level Cleveland Center
07:21PM 41.4192 -81.0289 135° Southeast 322 371 31,000  Level Cleveland Center
07:22PM 41.3569 -80.9400 133° Southeast 328 377 31,000  Level Cleveland Center
07:23PM 41.2947 -80.8511 133° Southeast 328 377 31,000  Level Cleveland Center
07:25PM 41.2222 -80.7513 134° Southeast  Level FlightAware Approximate
07:25PM 41.1719 -80.6853 134° Southeast 328 377 31,000  Level Cleveland Center
07:26PM 41.1033 -80.5858 132° Southeast 328 377 31,000  Level Cleveland Center
07:27PM 41.0364 -80.4950 134° Southeast 328 377 31,000  Level Cleveland Center
07:28PM 40.9717 -80.4044 133° Southeast 328 377 31,000  Level Cleveland Center
07:29PM 40.9069 -80.3167 134° Southeast 328 377 31,000  Level Cleveland Center
07:30PM 40.8381 -80.2292 136° Southeast 328 377 31,000  Level Cleveland Center
07:31PM 40.7894 -80.1142 119° Southeast 348 400 31,000  Level Cleveland Center
07:32PM 40.7472 -79.9856 113° Southeast 366 421 31,000  Level Cleveland Center
07:33PM 40.7006 -79.8600 116° Southeast 373 429 31,000  Level Cleveland Center
07:34PM 40.6539 -79.7319 116° Southeast 378 435 31,000  Level Cleveland Center
07:35PM 40.6133 -79.6203 116° Southeast 378 435 31,000  Level Cleveland Center
07:36PM 40.5686 -79.4953 115° Southeast 378 435 31,000  Level Cleveland Center
07:37PM 40.5214 -79.3703 116° Southeast 378 435 31,000 -660 Level Cleveland Center
07:38PM 40.4700 -79.2486 119° Southeast 378 435 29,800 -1,200 Descending Cleveland Center
07:39PM 40.4247 -79.1186 115° Southeast 383 441 28,600 -900 Descending Cleveland Center
07:40PM 40.3753 -79.0025 119° Southeast 376 433 28,000 -300 Descending Cleveland Center
07:41PM 40.3031 -78.9169 138° Southeast 352 405 28,000  Level Cleveland Center
07:42PM 40.2331 -78.8289 136° Southeast 352 405 28,000 -60 Level Cleveland Center
07:43PM 40.2036 -78.6883 105° East 361 415 27,900 -840 Descending Cleveland Center
07:44PM 40.2153 -78.5250 85° East 392 451 26,400 -960 Descending Cleveland Center
07:46PM 40.2389 -78.1894 85° East 439 505 25,000 -480 Descending New York Center
07:48PM 40.2483 -78.0381 85° East 433 498 25,000  Level New York Center
07:48PM 40.2550 -77.8944 86° East 416 479 25,000  Level New York Center
07:49PM 40.2658 -77.7458 84° East 403 464 25,000 -420 Level New York Center
07:50PM 40.3050 -77.6111 69° East 398 458 24,200 -1,020 Descending New York Center
07:51PM 40.3589 -77.4747 63° Northeast 398 458 23,000 -660 Descending New York Center
07:52PM 40.3956 -77.3392 70° East 403 464 23,000 -420 Level New York Center
07:53PM 40.3486 -77.2475 124° Southeast 341 392 22,200 -960 Descending New York Center
07:54PM 40.2725 -77.1886 149° Southeast 286 329 21,100 -1,380 Descending New York Center
07:56PM 40.1967 -77.1247 147° Southeast 297 342 19,500 -2,040 Descending New York Center
07:57PM 40.1978 -76.9861 89° East 322 371 17,000 -1,320 Descending New York Center
07:57PM 40.2542 -76.8661 58° Northeast 341 392 17,000  Level New York Center
07:58PM 40.3117 -76.7594 55° Northeast 377 434 17,000 -240 Level New York Center
07:59PM 40.3761 -76.6397 55° Northeast 394 453 16,600 -480 Descending New York Center
08:00PM 40.4447 -76.5172 54° Northeast 388 447 16,100 -540 Descending New York Center
08:01PM 40.4922 -76.3956 63° Northeast 378 435 15,600 -780 Descending New York Center
08:03PM 40.5108 -76.2661 79° East 363 418 14,600 -900 Descending New York Center
08:03PM 40.5014 -76.1533 96° East 344 396 13,800 -900 Descending New York Center
08:04PM 40.4881 -76.0350 98° East 333 383 12,900 -960 Descending New York Center
08:06PM 40.4444 -75.9361 120° Southeast 314 361 11,900 -960 Descending New York Center
08:06PM 40.3939 -75.8481 127° Southeast 296 341 11,100 -1,200 Descending New York Center
08:07PM 40.3647 -75.8019 130° Southeast 284 327 10,100 -1,740 Descending FAA TRACON SMA TRACON (SMA)
08:07PM 40.3492 -75.7783 131° Southeast 280 322 9,600 -1,560 Descending FAA TRACON SMA TRACON (SMA)
08:08PM 40.3353 -75.7553 128° Southeast 277 319 9,100 -900 Descending FAA TRACON SMA TRACON (SMA)
08:08PM 40.3269 -75.7150 105° East 292 336 9,000 -480 Descending FAA TRACON SMA TRACON (SMA)
08:08PM 40.3264 -75.6817 91° East 305 351 8,800 -1,320 Descending FAA TRACON SMA TRACON (SMA)
08:09PM 40.3264 -75.6469 90° East 317 365 8,100 -840 Descending FAA TRACON SMA TRACON (SMA)
08:09PM 40.3247 -75.5611 91° East 339 390 8,000 -240 Descending FAA TRACON SMA TRACON (SMA)
08:10PM 40.3203 -75.5278 100° East 326 375 7,900  Descending FAA TRACON SMA TRACON (SMA)
08:10PM 40.3064 -75.4983 122° Southeast 286 329 8,000 -600 Climbing FAA TRACON SMA TRACON (SMA)
08:10PM 40.2892 -75.4661 125° Southeast 287 330 7,500 -1,380 Descending FAA TRACON SMA TRACON (SMA)
08:11PM 40.2742 -75.4394 126° Southeast 285 328 7,100 -780 Descending FAA TRACON SMA TRACON (SMA)
08:11PM 40.2600 -75.4122 124° Southeast 288 331 7,000 -180 Descending FAA TRACON SMA TRACON (SMA)
08:11PM 40.2419 -75.3792 126° Southeast 289 333 7,000  Level FAA TRACON SMA TRACON (SMA)
08:12PM 40.2281 -75.3528 125° Southeast 289 333 7,000 -180 Level FAA TRACON SMA TRACON (SMA)
08:12PM 40.2133 -75.3264 126° Southeast 286 329 6,900 120 Descending FAA TRACON SMA TRACON (SMA)
08:12PM 40.1914 -75.3050 143° Southeast 241 277 7,100 120 Climbing FAA TRACON SMA TRACON (SMA)
08:13PM 40.1764 -75.2897 142° Southeast 218 251 7,000 -180 Descending FAA TRACON SMA TRACON (SMA)
08:13PM 40.1619 -75.2786 150° Southeast 186 214 7,000 -180 Level FAA TRACON SMA TRACON (SMA)
08:13PM 40.1453 -75.2653 149° Southeast 180 207 6,900 -1,080 Descending FAA TRACON SMA TRACON (SMA)
08:14PM 40.1317 -75.2544 149° Southeast 186 214 6,300 -1,320 Descending FAA TRACON SMA TRACON (SMA)
08:14PM 40.1172 -75.2433 150° Southeast 192 221 6,000 -480 Descending FAA TRACON SMA TRACON (SMA)
08:14PM 40.1006 -75.2297 148° Southeast 186 214 6,000  Level FAA TRACON SMA TRACON (SMA)
08:15PM 40.0872 -75.2192 149° Southeast 180 207 6,000  Level FAA TRACON SMA TRACON (SMA)
08:15PM 40.0744 -75.2086 148° Southeast 178 205 6,000  Level FAA TRACON SMA TRACON (SMA)
08:15PM 40.0592 -75.1958 147° Southeast 178 205 6,000  Level FAA TRACON SMA TRACON (SMA)
08:16PM 40.0458 -75.1847 147° Southeast 178 205 6,000  Level FAA TRACON SMA TRACON (SMA)
08:16PM 40.0322 -75.1736 148° Southeast 178 205 6,000  Level FAA TRACON SMA TRACON (SMA)
08:16PM 40.0181 -75.1550 135° Southeast 216 249 6,000  Level FAA TRACON SMA TRACON (SMA)
08:17PM 40.0186 -75.1294 88° East 245 282 6,000  Level FAA TRACON SMA TRACON (SMA)
08:17PM 40.0275 -75.1036 66° East 258 297 6,000  Level FAA TRACON SMA TRACON (SMA)
08:17PM 40.0378 -75.0706 68° East 261 300 6,000 -300 Level FAA TRACON SMA TRACON (SMA)
08:18PM 40.0461 -75.0439 68° East 256 295 5,800 -900 Descending FAA TRACON SMA TRACON (SMA)
08:18PM 40.0486 -75.0161 83° East 247 284 5,400 -1,080 Descending FAA TRACON SMA TRACON (SMA)
08:18PM 40.0508 -74.9892 84° East 241 277 5,100 -600 Descending FAA TRACON SMA TRACON (SMA)
08:19PM 40.0506 -74.9572 91° East 219 252 5,000 -480 Descending FAA TRACON SMA TRACON (SMA)
08:19PM 40.0400 -74.9417 132° Southeast 166 191 4,800 -1,080 Descending FAA TRACON SMA TRACON (SMA)
08:19PM 40.0281 -74.9319 148° Southeast 190 219 4,300 -1,560 Descending FAA TRACON SMA TRACON (SMA)
08:20PM 40.0117 -74.9219 155° Southeast 139 160 3,800 -1,320 Descending FAA TRACON SMA TRACON (SMA)
08:20PM 40.0017 -74.9297 211° Southwest 141 162 3,400 -1,200 Descending FAA TRACON SMA TRACON (SMA)
08:20PM 39.9953 -74.9414 234° Southwest 141 162 3,000 -600 Descending FAA TRACON SMA TRACON (SMA)
08:21PM 39.9858 -74.9581 234° Southwest 140 161 3,000 -180 Level FAA TRACON SMA TRACON (SMA)
08:21PM 39.9786 -74.9714 235° Southwest 141 162 2,900 -480 Descending FAA TRACON SMA TRACON (SMA)
08:21PM 39.9717 -74.9817 229° Southwest 141 162 2,700 -780 Descending FAA TRACON SMA TRACON (SMA)
08:22PM 39.9606 -74.9964 225° Southwest 136 157 2,400 -900 Descending FAA TRACON SMA TRACON (SMA)
08:22PM 39.9536 -75.0081 232° Southwest 133 153 2,100 -480 Descending FAA TRACON SMA TRACON (SMA)
08:22PM 39.9461 -75.0194 229° Southwest 133 153 2,100  Level FAA TRACON SMA TRACON (SMA)
08:23PM 39.9375 -75.0314 227° Southwest 133 153 2,100  Level FAA TRACON SMA TRACON (SMA)
08:23PM 39.9286 -75.0428 224° Southwest 134 154 2,100  Level FAA TRACON SMA TRACON (SMA)
08:23PM 39.9206 -75.0539 227° Southwest 132 152 2,100  Level FAA TRACON SMA TRACON (SMA)
08:24PM 39.9131 -75.0656 230° Southwest 133 153 2,100  Level FAA TRACON SMA TRACON (SMA)
08:24PM 39.9053 -75.0817 238° Southwest 141 162 2,100 -180 Level FAA TRACON SMA TRACON (SMA)
08:24PM 39.9019 -75.0978 255° West 150 173 2,000 -600 Descending FAA TRACON SMA TRACON (SMA)
08:25PM 39.8975 -75.1136 250° West 154 177 1,700 -960 Descending FAA TRACON SMA TRACON (SMA)
08:25PM 39.8939 -75.1322 256° West 147 169 1,400 -780 Descending FAA TRACON SMA TRACON (SMA)
08:25PM 39.8892 -75.1458 246° West 128 147 1,200 -600 Descending FAA TRACON SMA TRACON (SMA)
08:26PM 39.8875 -75.1608 262° West 144 166 1,000 -780 Descending FAA TRACON SMA TRACON (SMA)
08:26PM 39.8839 -75.1803 256° West 144 166 700 -960 Descending FAA TRACON SMA TRACON (SMA)
08:26PM 39.8806 -75.1958 254° West 145 167 400 -780 Descending FAA TRACON SMA TRACON (SMA)
08:27PM 39.8775 -75.2119 256° West 146 168 200 -300 Descending FAA TRACON SMA TRACON (SMA)
08:27PM 39.8767 -75.2158 254° West 146 168 200  Level FAA TRACON SMA TRACON (SMA)
08:27PM 39.8767 -75.2158 218° Southwest 146 168 200  Level FAA TRACON SMA TRACON (SMA)
08:29PM 39.8667 -75.2333 270° West  Level FlightAware Approximate